Pagrindinis puslapis
METAR-TAF:

METAR-TAF

Oro uostai :

Sandnessjøen, Norvegija

platuma: 65-58N, ilguma: 012-28E, Aukštis: 1 m

Dabartinis oras

Ataskaita buvo paskelbta 8 valandos ir 52 minutes, ne 14:20 UTC
Vėjas 8 kt iš Pietvakarių
Temperatūra 16°C
Drėgmė 82%
Slėgis 1010 hPa
Matomumas 10 km arba daugiau
Mažai debesys ne aukštis 1800 ft
Išsisklaidę debesys ne aukštis 3500 ft
Su prošvaistėmis ne aukštis 5500 ft

METAR: ENST 021420Z 22008KT 9999 FEW018 SCT035 BKN055 16/13 Q1010 RMK WIND 300FT 23007KT

Laikas: 01:12 (23:12 UTC)


TAF: trūkstamas

Orai ataskaitas ir orų prognozės (METAR, TAF).

turimą stotys yra geltonos ir raudonos taškus žemėlapyje.

Perkelti pele per norėdami pamatyti stoties vardą.

Tada spustelėkite, norėdami matyti oro stebėjimo ir prognozės.

Norėdami pakeisti žemėlapį: spustelėkite ant žalios mygtukų su juodo kryžiaus žemyn,; žalią mygtuką su brūkšneliu, jei norite nutolinti; arba žalių rodyklių gretimoms žemėlapius.


METAR-TAF: